Terminal Aerodrome Forecast
Issued by NWS Atlanta, GA

Home | Current Version | Previous Version | Text Only | Print | Product List | Glossary On
Versions: 1 2 3 4 5 6 7 8 9 10 11 12 13
000
FTUS42 KFFC 231120
TAFMCN
TAF
KMCN 231120Z 2312/2412 05005KT P6SM VCSH SCT050 BKN080
     FM231600 22006KT P6SM VCSH BKN025
      TEMPO 2319/2323 4SM TSRA BKN015CB
     FM232300 28008KT P6SM VCSH BKN020
     FM240400 27004KT 4SM BR OVC008=

USA.gov is the U.S. government's official web portal to all federal, state and local government web resources and services.